EDT,Max TemperatureF,Mean TemperatureF,Min TemperatureF,Max Dew PointF,MeanDew PointF,Min DewpointF,Max Humidity, Mean Humidity, Min Humidity, Max Sea Level PressureIn, Mean Sea Level PressureIn, Min Sea Level PressureIn, Max VisibilityMiles, Mean VisibilityMiles, Min VisibilityMiles, Max Wind SpeedMPH, Mean Wind SpeedMPH, Max Gust SpeedMPH,PrecipitationIn, CloudCover, Events, WindDirDegrees
2012-9-1,93,85,77,79,72,66,100,63,44,30.19,30.13,30.08,10,9,1,9,3,,0.00,2,,71
2012-9-2,91,81,71,79,67,63,100,56,38,30.12,30.08,30.01,10,9,3,12,3,17,0.00,1,,88
2012-9-3,93,82,71,79,69,63,100,60,36,30.09,30.05,30.00,10,10,7,7,1,,0.00,2,,82
2012-9-4,93,84,75,79,70,63,100,61,36,30.06,30.02,29.96,10,10,7,10,2,,0.00,2,,175
2012-9-5,91,83,75,79,73,66,100,68,43,30.03,29.99,29.94,10,10,7,13,4,18,0.00,1,Rain,189
2012-9-6,91,82,73,79,74,70,100,78,52,30.07,30.02,29.97,10,10,2,14,4,25,0.58,2,Rain,164
2012-9-7,91,82,73,81,74,70,100,66,49,30.04,29.99,29.93,10,10,7,14,4,18,0.01,1,Rain,181
2012-9-8,93,84,75,82,75,70,100,70,46,30.00,29.94,29.91,10,10,7,16,6,21,0.00,1,,201
2012-9-9,82,78,75,81,81,81,100,100,100,30.01,29.95,29.90,10,8,1,12,5,32,1.36,6,Rain,225
2012-9-10,89,83,77,82,76,72,100,78,59,30.07,30.01,29.96,10,7,2,9,1,25,0.56,3,Rain,180
2012-9-11,89,82,75,79,70,66,89,64,55,30.17,30.10,30.04,10,9,5,16,5,22,0.01,3,,59
2012-9-12,89,81,73,72,69,66,88,71,49,30.16,30.12,30.09,10,10,10,18,7,25,0.00,4,,59
2012-9-13,89,81,73,75,71,68,100,69,49,30.14,30.10,30.04,10,10,10,17,6,23,0.00,4,Rain,62
2012-9-14,89,82,75,75,73,70,100,71,55,30.10,30.06,30.01,10,10,10,15,6,22,0.00,3,Rain,59
2012-9-15,91,83,75,79,73,68,100,73,49,30.11,30.07,30.02,10,10,10,14,6,20,0.00,2,,75
2012-9-16,89,82,75,79,72,68,100,71,49,30.10,30.05,30.00,10,9,2,16,3,22,0.07,4,Rain,86
2012-9-17,91,82,73,77,72,70,100,64,49,30.06,30.00,29.91,10,9,2,13,3,24,0.19,2,Rain,139
2012-9-18,84,80,75,79,76,73,100,89,83,29.99,29.95,29.91,10,9,2,15,6,29,1.65,2,Rain,186
2012-9-19,89,82,75,79,75,72,100,73,55,30.08,30.00,29.95,10,9,2,16,4,22,0.38,2,Rain,221
2012-9-20,87,81,75,81,73,70,100,73,55,30.07,30.03,29.97,10,8,4,14,1,18,0.17,2,Rain,29
2012-9-21,86,80,73,79,73,70,100,73,62,30.05,30.01,29.94,10,8,4,20,3,30,0.06,4,Rain,50
2012-9-22,89,81,73,79,71,66,100,66,46,30.07,30.03,29.98,10,9,1,8,1,,0.00,2,,54
2012-9-23,91,81,71,81,67,61,100,56,36,30.11,30.07,30.03,10,9,2,7,1,,0.00,1,,347
2012-9-24,84,78,71,68,59,48,78,57,29,30.14,30.09,30.05,10,10,10,9,4,,0.00,1,,28
2012-9-25,86,76,66,75,66,61,100,70,43,30.14,30.10,30.07,10,10,7,6,1,,0.00,0,,53
2012-9-26,91,81,71,79,70,66,100,66,43,30.14,30.11,30.07,10,9,2,15,2,20,0.00,2,Rain,71
2012-9-27,91,81,71,77,69,64,94,59,41,30.15,30.10,30.03,10,9,4,13,2,18,0.00,1,,37
2012-9-28,91,82,73,77,70,66,100,64,43,30.10,30.04,29.96,10,9,0,12,2,21,0.00,3,Fog,50
2012-9-29,91,82,73,79,71,64,100,63,41,30.03,29.96,29.87,10,10,4,12,2,,0.00,2,,93
2012-9-30,91,82,73,79,73,70,100,67,49,29.94,29.87,29.81,10,10,7,10,2,,0.00,1,,194